Grand Island, NE (68802)

9:10 AM CDT on August 27, 2016 (GMT -0500)
Riverside/Barr | | Change Station
Active Advisory: Dense Fog Advisory

Elev 1856 ft 40.90 °N, 98.35 °W | Updated 5 seconds ago

Clear
Clear
63.1 °F
Feels Like 63.1 °F
N
0.0
Wind Variable Wind from ESE
Gusts 3.0 mph

Today
High -- | Low -- °F
--% Chance of Precip.
Yesterday
High -- | Low -- °F
Precip. -- in
Pressure 30.05 in
Visibility 10.0 miles
Clouds Clear
Dew Point 62 °F
Humidity 95%
Rainfall 0.00 in
Snow Depth Not available.
6:55 AM 8:12 PM
Waning Crescent, 24% visible
METAR KGRI 271353Z 29007KT 10SM CLR 17/16 A3006 RMK AO2 SLP176 T01720156
Pressure 30.05 in
Visibility 10.0 miles
Clouds Clear
Dew Point 62 °F
Humidity 95%
Rainfall 0.00 in
Snow Depth Not available.
6:55 AM 8:12 PM
Waning Crescent, 24% visible
METAR KGRI 271353Z 29007KT 10SM CLR 17/16 A3006 RMK AO2 SLP176 T01720156

10-Day Weather Forecast

Almanac

Astronomy

Aug. 27, 2016 Rise Set
Actual Time
Civil Twilight
Nautical Twilight
Astronomical Twilight
Moon
Length of Visible Light
Length of Day
Tomorrow will be .
, % of the Moon is Illuminated

Today's Extremes

State Highs State Lows

Community

WunderPhotos

Upload Photos

1,935,340 photos uploaded!

WunderBlog® & News

Nearby

Air Quality

  Air Quality AQ Index Pollutant
Not available.

Snow Depth

Station Depth Elevation

Earthquake Activity

City Distance Mag. Time & Date
Minimum magnitude displayed is 2.5.

Coastal Water Temperatures

Place Temperature

Stations

Nearby Weather Stations

Station Location Temp. Windchill Dew Point Humidity Wind Precip. Elev Updated Type
                   

Watches & Warnings

Dense Fog Advisory
Issued: 9:05 AM CDT Aug. 27, 2016 – National Weather Service

... Dense fog advisory is cancelled...

The National Weather Service in Hastings has cancelled the dense
fog advisory.

Fog has lifted and visibility has improved. There may still be a
few locations that have some patchy fog.